createdAt,value
2022-08-09T00:00:00.857Z,4.50
2022-08-09T00:00:55.696Z,4.51
2022-08-09T00:01:52.721Z,4.36
2022-08-09T00:02:29.847Z,4.80
2022-08-09T00:04:05.455Z,4.72
2022-08-09T00:04:34.293Z,4.71
2022-08-09T00:06:17.698Z,4.97
2022-08-09T00:06:18.995Z,4.99
2022-08-09T00:07:03.672Z,4.63
2022-08-09T00:07:54.258Z,4.64
2022-08-09T00:08:35.655Z,4.49
2022-08-09T00:09:17.059Z,4.80
2022-08-09T00:10:00.669Z,4.96
2022-08-09T00:10:40.763Z,4.97
2022-08-09T00:11:24.466Z,4.64
2022-08-09T00:12:22.377Z,4.64
2022-08-09T00:13:17.422Z,4.47
2022-08-09T00:14:12.658Z,4.44
2022-08-09T00:15:15.643Z,4.49
2022-08-09T00:16:12.818Z,4.68
2022-08-09T00:17:06.674Z,4.72
2022-08-09T00:18:05.036Z,4.75
2022-08-09T00:18:47.958Z,4.63
2022-08-09T00:19:28.652Z,4.47
2022-08-09T00:20:08.718Z,4.68
2022-08-09T00:20:53.645Z,4.65
2022-08-09T00:21:35.712Z,4.39
2022-08-09T00:22:15.632Z,4.71
2022-08-09T00:23:57.920Z,4.50
2022-08-09T00:24:20.652Z,4.45
2022-08-09T00:25:14.653Z,4.66
2022-08-09T00:26:29.565Z,4.63
2022-08-09T00:27:27.733Z,4.69
2022-08-09T00:28:22.661Z,4.66
2022-08-09T00:29:00.765Z,4.56
2022-08-09T00:30:16.520Z,4.68
2022-08-09T00:30:41.709Z,4.70
2022-08-09T00:31:56.971Z,4.61
2022-08-09T00:32:26.858Z,4.63
2022-08-09T00:33:14.643Z,4.63
2022-08-09T00:33:55.667Z,4.56
2022-08-09T00:34:52.206Z,4.66
2022-08-09T00:35:46.657Z,4.43
2022-08-09T00:36:41.837Z,4.60
2022-08-09T00:37:35.634Z,4.74
2022-08-09T00:38:29.658Z,4.34
2022-08-09T00:40:09.302Z,4.29
2022-08-09T00:40:17.196Z,4.72
2022-08-09T00:41:05.382Z,4.70
2022-08-09T00:44:13.139Z,4.68
2022-08-09T00:44:13.638Z,4.79
2022-08-09T00:44:14.505Z,4.29
2022-08-09T00:44:46.817Z,4.61
2022-08-09T00:45:27.839Z,4.66
2022-08-09T00:46:07.643Z,4.53
2022-08-09T00:46:57.891Z,4.53
2022-08-09T00:47:46.612Z,4.70
2022-08-09T00:48:27.696Z,4.72
2022-08-09T00:49:09.633Z,4.60
2022-08-09T00:49:58.654Z,4.43
2022-08-09T00:50:52.644Z,4.45
2022-08-09T00:51:54.826Z,4.20
2022-08-09T00:52:50.629Z,4.45
2022-08-09T00:53:46.630Z,4.34
2022-08-09T00:54:40.610Z,4.18
2022-08-09T00:55:54.230Z,4.32
2022-08-09T00:56:23.733Z,4.65
2022-08-09T00:57:10.292Z,4.32
2022-08-09T00:57:52.702Z,4.39
2022-08-09T00:58:43.630Z,4.43
2022-08-09T00:59:40.983Z,4.60
2022-08-09T01:00:27.654Z,4.66
2022-08-09T01:01:08.779Z,4.16
2022-08-09T01:01:57.642Z,4.34
2022-08-09T01:02:40.680Z,4.30
2022-08-09T01:03:28.528Z,4.24
2022-08-09T01:04:47.749Z,4.19
2022-08-09T01:05:54.892Z,4.34
2022-08-09T01:07:13.832Z,4.65
2022-08-09T01:08:19.625Z,4.47
2022-08-09T01:09:39.711Z,4.44
2022-08-09T01:10:34.991Z,4.45
2022-08-09T01:11:39.661Z,4.30
2022-08-09T01:12:22.691Z,4.39
2022-08-09T01:13:23.608Z,4.65
2022-08-09T01:14:29.730Z,4.80
2022-08-09T01:15:29.604Z,4.57
2022-08-09T01:16:06.670Z,4.36
2022-08-09T01:16:55.642Z,4.41
2022-08-09T01:17:36.687Z,4.10
2022-08-09T01:18:33.598Z,4.34
2022-08-09T01:19:40.066Z,4.41
2022-08-09T01:21:20.609Z,4.43
2022-08-09T01:22:26.703Z,4.46
2022-08-09T01:24:02.809Z,4.49
2022-08-09T01:25:41.800Z,4.57
2022-08-09T01:27:07.840Z,4.64
2022-08-09T01:27:48.628Z,4.54
2022-08-09T01:28:31.691Z,4.22
2022-08-09T01:29:15.308Z,4.29
2022-08-09T01:30:28.695Z,4.43
2022-08-09T01:31:11.587Z,4.50
2022-08-09T01:32:39.062Z,4.55
2022-08-09T01:33:15.615Z,4.49
2022-08-09T01:33:56.640Z,4.32
2022-08-09T01:34:40.602Z,4.44
2022-08-09T01:35:47.665Z,4.63
2022-08-09T01:36:34.589Z,4.97
2022-08-09T01:37:16.657Z,4.86
2022-08-09T01:38:09.587Z,4.90
2022-08-09T01:38:57.603Z,4.96
2022-08-09T01:39:35.792Z,4.57
2022-08-09T01:40:28.355Z,4.40
2022-08-09T01:41:18.768Z,4.76
2022-08-09T01:42:14.592Z,4.45
2022-08-09T01:42:48.678Z,4.06
2022-08-09T01:43:41.834Z,4.53
2022-08-09T01:44:34.598Z,4.79
2022-08-09T01:45:30.587Z,4.50
2022-08-09T01:46:26.888Z,4.60
2022-08-09T01:47:21.591Z,4.46
2022-08-09T01:48:17.585Z,4.28
2022-08-09T01:49:31.918Z,4.44
2022-08-09T01:50:19.604Z,4.60
2022-08-09T01:51:10.721Z,4.60
2022-08-09T01:51:55.570Z,4.80
2022-08-09T01:52:36.644Z,4.76
2022-08-09T01:53:23.572Z,4.66
2022-08-09T01:54:10.671Z,4.34
2022-08-09T01:54:55.592Z,4.59
2022-08-09T01:55:37.620Z,4.88
2022-08-09T01:56:13.651Z,4.69
2022-08-09T01:57:04.021Z,4.60
2022-08-09T01:57:46.108Z,4.59
2022-08-09T01:58:38.592Z,4.71
2022-08-09T01:59:16.714Z,4.71
2022-08-09T02:00:34.866Z,4.84
2022-08-09T02:01:11.664Z,4.56
2022-08-09T02:02:13.608Z,4.79
2022-08-09T02:03:13.587Z,4.69
2022-08-09T02:04:10.606Z,4.79
2022-08-09T02:05:15.388Z,4.55
2022-08-09T02:06:09.559Z,4.44
2022-08-09T02:07:15.381Z,4.63
2022-08-09T02:08:40.465Z,4.55
2022-08-09T02:09:16.598Z,4.89
2022-08-09T02:10:06.646Z,4.81
2022-08-09T02:10:52.582Z,4.76
2022-08-09T02:11:40.301Z,4.61
2022-08-09T02:12:21.343Z,4.68
2022-08-09T02:13:13.594Z,4.68
2022-08-09T02:14:06.279Z,4.78
2022-08-09T02:14:59.588Z,4.70
2022-08-09T02:15:48.725Z,4.46
2022-08-09T02:16:53.218Z,4.40
2022-08-09T02:18:01.187Z,4.36
2022-08-09T02:18:47.760Z,4.25
2022-08-09T02:19:22.621Z,4.35
2022-08-09T02:20:10.573Z,4.68
2022-08-09T02:20:52.646Z,4.59
2022-08-09T02:21:48.595Z,4.46
2022-08-09T02:22:51.627Z,4.41
2022-08-09T02:23:39.856Z,4.43
2022-08-09T02:24:30.678Z,4.50
2022-08-09T02:25:19.536Z,4.56
2022-08-09T02:26:02.638Z,4.63
2022-08-09T02:26:45.562Z,4.71
2022-08-09T02:27:57.326Z,4.65
2022-08-09T02:28:37.628Z,4.51
2022-08-09T02:29:21.084Z,4.68
2022-08-09T02:30:02.557Z,4.70
2022-08-09T02:30:41.729Z,4.59
2022-08-09T02:31:25.969Z,4.26
2022-08-09T02:32:09.599Z,4.50
2022-08-09T02:32:55.592Z,4.41
2022-08-09T02:34:06.306Z,4.91
2022-08-09T02:34:51.898Z,4.61
2022-08-09T02:36:03.446Z,4.38
2022-08-09T02:36:52.617Z,4.65
2022-08-09T02:37:31.491Z,4.34
2022-08-09T02:38:22.059Z,4.32
2022-08-09T02:39:07.520Z,4.38
2022-08-09T02:40:12.631Z,4.56
2022-08-09T02:40:46.922Z,4.54
2022-08-09T02:41:52.560Z,4.49
2022-08-09T02:42:34.077Z,4.45
2022-08-09T02:43:22.590Z,4.54
2022-08-09T02:44:13.771Z,4.47
2022-08-09T02:45:28.826Z,4.21
2022-08-09T02:46:05.498Z,4.29
2022-08-09T02:46:53.588Z,4.30
2022-08-09T02:47:33.998Z,4.20
2022-08-09T02:48:35.722Z,4.25
2022-08-09T02:49:12.973Z,4.30
2022-08-09T02:50:17.515Z,4.15
2022-08-09T02:50:56.454Z,4.54
2022-08-09T02:51:48.506Z,4.38
2022-08-09T02:52:28.576Z,4.29
2022-08-09T02:53:26.688Z,4.35
2022-08-09T02:54:07.591Z,4.20
2022-08-09T02:54:54.719Z,4.04
2022-08-09T02:55:53.738Z,4.01
2022-08-09T02:56:41.590Z,4.41
2022-08-09T02:57:29.509Z,4.72
2022-08-09T02:58:35.518Z,4.49
2022-08-09T02:59:26.664Z,4.26
2022-08-09T03:00:25.537Z,4.25
2022-08-09T03:01:10.851Z,4.36
2022-08-09T03:02:05.878Z,4.30
2022-08-09T03:02:59.721Z,4.24
2022-08-09T03:04:17.390Z,4.26
2022-08-09T03:04:43.519Z,4.41
2022-08-09T03:05:25.613Z,4.76
2022-08-09T03:06:06.543Z,4.78
2022-08-09T03:06:49.583Z,4.59
2022-08-09T03:07:31.520Z,4.18
2022-08-09T03:08:14.598Z,4.22
2022-08-09T03:08:55.541Z,4.38
2022-08-09T03:09:36.583Z,4.53
2022-08-09T03:10:23.581Z,4.40
2022-08-09T03:11:04.620Z,4.25
2022-08-09T03:12:05.492Z,4.19
2022-08-09T03:12:49.342Z,4.50
2022-08-09T03:13:43.971Z,4.55
2022-08-09T03:14:34.579Z,4.46
2022-08-09T03:15:18.499Z,4.46
2022-08-09T03:16:05.825Z,4.30
2022-08-09T03:16:45.137Z,4.38
2022-08-09T03:17:27.035Z,4.41
2022-08-09T03:18:10.840Z,4.21
2022-08-09T03:18:45.663Z,4.21
2022-08-09T03:19:58.528Z,4.31
2022-08-09T03:20:21.498Z,4.11
2022-08-09T03:20:58.620Z,4.10
2022-08-09T03:21:39.899Z,4.50
2022-08-09T03:22:25.648Z,4.36
2022-08-09T03:23:24.438Z,4.29
2022-08-09T03:24:04.254Z,4.26
2022-08-09T03:24:52.246Z,4.24
2022-08-09T03:26:02.129Z,4.47
2022-08-09T03:26:34.517Z,4.56
2022-08-09T03:27:22.522Z,4.19
2022-08-09T03:28:19.500Z,4.66
2022-08-09T03:29:23.015Z,4.43
2022-08-09T03:30:29.522Z,4.34
2022-08-09T03:31:29.506Z,4.24
2022-08-09T03:32:26.520Z,4.07
2022-08-09T03:33:22.509Z,4.05
2022-08-09T03:34:17.542Z,4.45
2022-08-09T03:35:15.041Z,4.40
2022-08-09T03:36:19.484Z,4.28
2022-08-09T03:37:56.205Z,4.22
2022-08-09T03:38:28.495Z,4.53
2022-08-09T03:39:10.631Z,4.41
2022-08-09T03:39:55.704Z,4.60
2022-08-09T03:40:36.635Z,4.54
2022-08-09T03:41:21.471Z,4.65
2022-08-09T03:42:11.549Z,4.51
2022-08-09T03:42:52.490Z,4.38
2022-08-09T03:43:36.555Z,4.59
2022-08-09T03:44:12.159Z,4.53
2022-08-09T03:44:59.485Z,4.30
2022-08-09T03:46:04.035Z,4.66
2022-08-09T03:46:43.490Z,4.65
2022-08-09T03:47:18.553Z,4.47
2022-08-09T03:48:05.488Z,4.45
2022-08-09T03:48:51.885Z,4.66
2022-08-09T03:49:58.047Z,4.93
2022-08-09T03:50:54.507Z,4.78
2022-08-09T03:51:58.877Z,4.85
2022-08-09T03:52:55.478Z,4.70
2022-08-09T03:53:52.514Z,4.54
2022-08-09T03:54:51.499Z,4.71
2022-08-09T03:55:46.453Z,4.76
2022-08-09T03:56:41.400Z,4.65
2022-08-09T03:57:53.589Z,4.40
2022-08-09T03:58:50.469Z,4.57
2022-08-09T03:59:52.969Z,4.71
2022-08-09T04:00:36.587Z,4.60
2022-08-09T04:01:17.564Z,4.56
2022-08-09T04:02:03.870Z,4.54
2022-08-09T04:02:52.685Z,4.65
2022-08-09T04:03:45.904Z,4.73
2022-08-09T04:04:27.480Z,4.72
2022-08-09T04:05:26.655Z,4.65
2022-08-09T04:06:09.463Z,4.78
2022-08-09T04:06:52.531Z,4.91
2022-08-09T04:07:47.673Z,4.54
2022-08-09T04:08:33.650Z,4.60
2022-08-09T04:09:47.574Z,4.69
2022-08-09T04:10:15.462Z,4.76
2022-08-09T04:10:54.673Z,4.71
2022-08-09T04:11:57.473Z,4.64
2022-08-09T04:12:49.808Z,4.79
2022-08-09T04:14:37.065Z,4.82
2022-08-09T04:14:54.289Z,5.04
2022-08-09T04:16:18.523Z,5.00
2022-08-09T04:16:39.502Z,4.61
2022-08-09T04:17:19.459Z,4.55
2022-08-09T04:18:01.578Z,4.70
2022-08-09T04:18:42.461Z,4.76
2022-08-09T04:19:42.647Z,4.55
2022-08-09T04:20:25.475Z,4.71
2022-08-09T04:21:06.477Z,4.65
2022-08-09T04:21:40.520Z,4.82
2022-08-09T04:22:15.173Z,4.53
2022-08-09T04:22:57.450Z,4.75
2022-08-09T04:23:33.677Z,4.34
2022-08-09T04:24:08.409Z,4.53
2022-08-09T04:24:48.447Z,4.61
2022-08-09T04:25:22.510Z,4.66
2022-08-09T04:25:57.291Z,4.78
2022-08-09T04:26:38.028Z,4.90
2022-08-09T04:27:12.511Z,4.80
2022-08-09T04:27:49.311Z,5.30
2022-08-09T04:28:36.006Z,5.29
2022-08-09T04:29:15.507Z,5.11
2022-08-09T04:29:50.526Z,4.93
2022-08-09T04:30:32.449Z,5.11
2022-08-09T04:31:08.270Z,4.78
2022-08-09T04:31:49.502Z,4.84
2022-08-09T04:32:33.817Z,5.11
2022-08-09T04:33:17.436Z,4.74
2022-08-09T04:33:59.420Z,4.57
2022-08-09T04:34:41.428Z,4.57
2022-08-09T04:35:35.568Z,4.65
2022-08-09T04:36:15.426Z,4.60
2022-08-09T04:37:06.473Z,4.43
2022-08-09T04:37:45.789Z,4.46
2022-08-09T04:38:33.444Z,4.32
2022-08-09T04:39:11.187Z,4.25
2022-08-09T04:40:06.430Z,4.36
2022-08-09T04:40:48.353Z,4.60
2022-08-09T04:41:45.503Z,4.74
2022-08-09T04:42:25.440Z,4.99
2022-08-09T04:43:10.497Z,4.63
2022-08-09T04:44:05.168Z,4.65
2022-08-09T04:44:49.118Z,4.90
2022-08-09T04:45:30.709Z,4.76
2022-08-09T04:46:37.334Z,4.78
2022-08-09T04:47:15.426Z,4.57
2022-08-09T04:48:00.866Z,4.56
2022-08-09T04:48:37.489Z,4.82
2022-08-09T04:49:12.165Z,4.47
2022-08-09T04:49:55.887Z,4.68
2022-08-09T04:50:33.677Z,4.61
2022-08-09T04:51:09.436Z,4.63
2022-08-09T04:51:49.424Z,4.82
2022-08-09T04:52:26.450Z,4.78
2022-08-09T04:53:07.448Z,4.70
2022-08-09T04:53:54.312Z,5.06
2022-08-09T04:54:39.422Z,4.90
2022-08-09T04:55:19.486Z,4.71
2022-08-09T04:56:00.446Z,4.71
2022-08-09T04:56:41.010Z,4.34
2022-08-09T04:57:25.148Z,4.60
2022-08-09T04:58:09.539Z,4.69
2022-08-09T04:58:50.876Z,4.66
2022-08-09T04:59:30.530Z,4.84
2022-08-09T05:00:12.417Z,5.07
2022-08-09T05:00:52.791Z,4.82
2022-08-09T05:01:35.427Z,4.93
2022-08-09T05:02:15.484Z,5.25
2022-08-09T05:02:55.422Z,5.76
2022-08-09T05:03:42.722Z,5.34
2022-08-09T05:04:31.125Z,4.80
2022-08-09T05:05:12.519Z,5.05
2022-08-09T05:06:04.375Z,5.43
2022-08-09T05:06:50.532Z,5.07
2022-08-09T05:07:38.413Z,4.88
2022-08-09T05:08:15.150Z,4.84
2022-08-09T05:09:03.442Z,4.90
2022-08-09T05:09:49.670Z,4.88
2022-08-09T05:10:44.579Z,4.61
2022-08-09T05:11:38.436Z,5.20
2022-08-09T05:12:33.131Z,5.63
2022-08-09T05:13:27.410Z,5.66
2022-08-09T05:14:22.405Z,5.75
2022-08-09T05:15:11.656Z,5.41
2022-08-09T05:16:05.501Z,5.26
2022-08-09T05:16:58.872Z,5.31
2022-08-09T05:18:38.801Z,5.53
2022-08-09T05:18:58.493Z,5.90
2022-08-09T05:19:44.533Z,6.32
2022-08-09T05:20:29.807Z,6.60
2022-08-09T05:21:20.760Z,6.50
2022-08-09T05:22:05.421Z,6.28
2022-08-09T05:23:54.578Z,6.24
2022-08-09T05:24:06.806Z,6.40
2022-08-09T05:24:47.684Z,6.44
2022-08-09T05:25:32.404Z,6.38
2022-08-09T05:26:16.140Z,7.35
2022-08-09T05:27:13.477Z,8.11
2022-08-09T05:27:58.009Z,8.86
2022-08-09T05:28:39.430Z,9.18
2022-08-09T05:29:24.097Z,8.04
2022-08-09T05:30:05.413Z,6.20
2022-08-09T05:30:48.438Z,5.82
2022-08-09T05:31:36.977Z,5.57
2022-08-09T05:32:30.604Z,5.32
2022-08-09T05:33:05.444Z,5.21
2022-08-09T05:33:56.421Z,5.22
2022-08-09T05:34:32.914Z,5.21
2022-08-09T05:35:22.036Z,5.07
2022-08-09T05:36:03.432Z,5.00
2022-08-09T05:36:58.393Z,5.30
2022-08-09T05:37:55.394Z,5.24
2022-08-09T05:38:49.391Z,5.26
2022-08-09T05:39:44.517Z,5.46
2022-08-09T05:40:38.417Z,5.65
2022-08-09T05:41:25.388Z,5.47
2022-08-09T05:42:01.450Z,5.57
2022-08-09T05:42:50.389Z,5.51
2022-08-09T05:43:24.634Z,5.31
2022-08-09T05:44:17.381Z,5.41
2022-08-09T05:45:01.514Z,5.41
2022-08-09T05:45:55.884Z,5.25
2022-08-09T05:46:38.420Z,5.66
2022-08-09T05:47:45.560Z,5.93
2022-08-09T05:48:48.596Z,5.78
2022-08-09T05:50:26.882Z,5.85
2022-08-09T05:51:30.335Z,5.72
2022-08-09T05:52:06.393Z,5.89
2022-08-09T05:52:53.365Z,6.15
2022-08-09T05:53:37.230Z,6.03
2022-08-09T05:54:34.664Z,5.54
2022-08-09T05:55:20.285Z,5.61
2022-08-09T05:56:01.730Z,6.15
2022-08-09T05:56:54.409Z,6.15
2022-08-09T05:57:51.260Z,6.03
2022-08-09T05:58:29.481Z,6.28
2022-08-09T05:59:16.366Z,5.90
2022-08-09T05:59:50.449Z,6.13
2022-08-09T06:00:38.382Z,6.47
2022-08-09T06:01:15.918Z,6.59
2022-08-09T06:02:03.396Z,6.81
2022-08-09T06:02:46.658Z,6.89
2022-08-09T06:03:54.533Z,6.99
2022-08-09T06:04:52.366Z,7.15
2022-08-09T06:05:56.904Z,7.15
2022-08-09T06:06:52.363Z,7.21
2022-08-09T06:07:49.678Z,7.38
2022-08-09T06:08:59.366Z,7.53
2022-08-09T06:10:01.394Z,7.55
2022-08-09T06:10:57.969Z,7.51
2022-08-09T06:11:57.470Z,7.20
2022-08-09T06:12:59.329Z,7.56
2022-08-09T06:14:05.375Z,7.71
2022-08-09T06:15:01.490Z,8.36
2022-08-09T06:15:56.366Z,8.85
2022-08-09T06:16:52.471Z,9.21
2022-08-09T06:17:46.811Z,9.21
2022-08-09T06:18:29.390Z,9.05
2022-08-09T06:19:11.431Z,8.86
2022-08-09T06:19:52.350Z,8.82
2022-08-09T06:20:35.478Z,8.66
2022-08-09T06:21:16.347Z,8.88
2022-08-09T06:21:58.486Z,8.69
2022-08-09T06:22:39.373Z,8.38
2022-08-09T06:23:20.659Z,8.05
2022-08-09T06:24:02.775Z,7.89
2022-08-09T06:24:43.498Z,7.72
2022-08-09T06:25:23.335Z,7.72
2022-08-09T06:26:03.485Z,7.71
2022-08-09T06:26:48.345Z,7.91
2022-08-09T06:27:41.333Z,7.69
2022-08-09T06:28:31.885Z,7.41
2022-08-09T06:29:19.369Z,7.53
2022-08-09T06:30:16.879Z,7.55
2022-08-09T06:31:11.359Z,7.50
2022-08-09T06:32:08.573Z,7.41
2022-08-09T06:33:41.680Z,7.18
2022-08-09T06:34:34.387Z,7.03
2022-08-09T06:35:35.625Z,6.71
2022-08-09T06:36:44.351Z,6.53
2022-08-09T06:37:53.346Z,6.54
2022-08-09T06:38:52.386Z,6.32
2022-08-09T06:39:58.329Z,6.15
2022-08-09T06:40:54.905Z,6.13
2022-08-09T06:42:08.061Z,6.15
2022-08-09T06:43:03.342Z,6.18
2022-08-09T06:43:57.333Z,5.81
2022-08-09T06:44:54.025Z,5.85
2022-08-09T06:46:07.341Z,6.01
2022-08-09T06:47:02.358Z,5.89
2022-08-09T06:47:57.987Z,5.96
2022-08-09T06:48:59.681Z,6.00
2022-08-09T06:50:13.899Z,6.78
2022-08-09T06:51:08.337Z,7.06
2022-08-09T06:52:02.333Z,6.72
2022-08-09T06:52:57.469Z,5.84
2022-08-09T06:53:52.346Z,5.70
2022-08-09T06:54:47.331Z,5.88
2022-08-09T06:55:30.358Z,5.86
2022-08-09T06:56:15.401Z,5.96
2022-08-09T06:56:55.309Z,6.14
2022-08-09T06:58:01.144Z,5.80
2022-08-09T07:00:48.829Z,5.82
2022-08-09T07:00:49.653Z,5.86
2022-08-09T07:00:56.901Z,5.80
2022-08-09T07:01:54.274Z,5.76
2022-08-09T07:02:39.378Z,5.66
2022-08-09T07:03:20.402Z,5.68
2022-08-09T07:04:08.313Z,5.65
2022-08-09T07:04:50.380Z,5.55
2022-08-09T07:05:58.443Z,5.49
2022-08-09T07:06:31.346Z,5.50
2022-08-09T07:07:05.395Z,5.46
2022-08-09T07:08:01.904Z,5.30
2022-08-09T07:08:37.184Z,5.46
2022-08-09T07:09:55.438Z,5.36
2022-08-09T07:10:22.461Z,5.25
2022-08-09T07:11:17.678Z,5.36
2022-08-09T07:12:06.325Z,5.54
2022-08-09T07:13:00.322Z,5.54
2022-08-09T07:14:12.335Z,5.19
2022-08-09T07:16:36.539Z,5.22
2022-08-09T07:16:42.478Z,5.35
2022-08-09T07:17:39.966Z,5.20
2022-08-09T07:18:24.384Z,5.30
2022-08-09T07:19:15.593Z,4.94
2022-08-09T07:19:55.808Z,5.03
2022-08-09T07:20:44.426Z,5.00
2022-08-09T07:21:21.374Z,5.10
2022-08-09T07:22:10.893Z,5.19
2022-08-09T07:22:54.350Z,5.13
2022-08-09T07:23:57.810Z,4.93
2022-08-09T07:24:52.313Z,4.97
2022-08-09T07:25:46.313Z,5.00
2022-08-09T07:26:41.361Z,4.90
2022-08-09T07:27:42.599Z,4.96
2022-08-09T07:28:28.067Z,5.15
2022-08-09T07:29:13.388Z,5.04
2022-08-09T07:29:56.771Z,5.14
2022-08-09T07:30:37.380Z,5.20
2022-08-09T07:31:18.281Z,5.29
2022-08-09T07:32:04.373Z,5.23
2022-08-09T07:32:44.302Z,5.31
2022-08-09T07:33:52.101Z,5.20
2022-08-09T07:34:48.284Z,5.59
2022-08-09T07:35:53.907Z,6.36
2022-08-09T07:36:48.310Z,6.74
2022-08-09T07:37:43.878Z,6.99
2022-08-09T07:38:38.310Z,7.16
2022-08-09T07:39:41.555Z,7.20
2022-08-09T07:41:00.616Z,7.16
2022-08-09T07:41:50.303Z,7.16
2022-08-09T07:42:45.303Z,6.72
2022-08-09T07:43:41.437Z,6.41
2022-08-09T07:44:51.003Z,6.56
2022-08-09T07:45:47.319Z,7.01
2022-08-09T07:46:42.340Z,6.47
2022-08-09T07:47:49.261Z,6.38
2022-08-09T07:48:43.337Z,6.40
2022-08-09T07:49:52.321Z,6.25
2022-08-09T07:51:10.243Z,5.54
2022-08-09T07:52:17.018Z,5.59
2022-08-09T07:53:11.325Z,5.55
2022-08-09T07:54:06.211Z,5.31
2022-08-09T07:54:42.961Z,5.49
2022-08-09T07:55:30.297Z,5.40
2022-08-09T07:56:26.620Z,5.30
2022-08-09T07:57:14.287Z,5.49
2022-08-09T07:57:49.037Z,5.39
2022-08-09T07:58:36.322Z,5.63
2022-08-09T07:59:25.322Z,5.72
2022-08-09T08:00:36.782Z,5.70
2022-08-09T08:01:53.044Z,5.59
2022-08-09T08:02:47.933Z,5.86
2022-08-09T08:03:42.548Z,5.95
2022-08-09T08:04:37.461Z,5.61
2022-08-09T08:05:39.112Z,5.13
2022-08-09T08:06:35.213Z,4.89
2022-08-09T08:07:15.394Z,5.06
2022-08-09T08:09:00.981Z,5.43
2022-08-09T08:09:18.355Z,5.15
2022-08-09T08:10:14.331Z,4.95
2022-08-09T08:11:15.263Z,4.88
2022-08-09T08:12:24.445Z,4.69
2022-08-09T08:12:50.306Z,4.56
2022-08-09T08:13:24.415Z,5.07
2022-08-09T08:14:12.021Z,5.22
2022-08-09T08:14:53.286Z,5.09
2022-08-09T08:15:35.477Z,5.01
2022-08-09T08:16:29.530Z,5.00
2022-08-09T08:17:35.375Z,5.11
2022-08-09T08:18:14.502Z,4.96
2022-08-09T08:19:02.948Z,5.19
2022-08-09T08:19:37.281Z,5.21
2022-08-09T08:20:29.064Z,5.14
2022-08-09T08:21:11.301Z,4.91
2022-08-09T08:21:53.112Z,4.45
2022-08-09T08:22:33.472Z,4.64
2022-08-09T08:23:18.602Z,4.75
2022-08-09T08:24:01.233Z,4.65
2022-08-09T08:24:55.971Z,4.76
2022-08-09T08:25:44.530Z,4.91
2022-08-09T08:26:42.023Z,4.60
2022-08-09T08:27:27.059Z,4.99
2022-08-09T08:28:32.835Z,4.78
2022-08-09T08:29:07.032Z,5.03
2022-08-09T08:29:55.319Z,5.26
2022-08-09T08:30:28.980Z,5.49
2022-08-09T08:31:17.271Z,5.47
2022-08-09T08:32:03.795Z,5.30
2022-08-09T08:32:53.469Z,4.91
2022-08-09T08:33:49.683Z,5.06
2022-08-09T08:34:36.451Z,5.26
2022-08-09T08:35:18.173Z,5.22
2022-08-09T08:36:03.594Z,4.76
2022-08-09T08:36:44.234Z,4.94
2022-08-09T08:37:25.136Z,5.06
2022-08-09T08:38:16.336Z,4.93
2022-08-09T08:38:52.002Z,4.88
2022-08-09T08:39:40.037Z,4.61
2022-08-09T08:40:19.338Z,4.56
2022-08-09T08:40:53.651Z,4.63
2022-08-09T08:41:42.098Z,4.66
2022-08-09T08:42:33.530Z,4.74
2022-08-09T08:43:13.165Z,4.40
2022-08-09T08:44:03.508Z,4.41
2022-08-09T08:44:39.704Z,4.31
2022-08-09T08:45:37.395Z,4.38
2022-08-09T08:46:33.705Z,4.32
2022-08-09T08:47:22.254Z,4.64
2022-08-09T08:48:07.288Z,4.81
2022-08-09T08:48:51.107Z,4.69
2022-08-09T08:49:38.711Z,4.29
2022-08-09T08:50:28.425Z,4.09
2022-08-09T08:51:10.244Z,4.10
2022-08-09T08:52:01.704Z,4.19
2022-08-09T08:52:59.657Z,3.83
2022-08-09T08:54:02.564Z,3.55
2022-08-09T08:54:35.393Z,3.16
2022-08-09T08:55:10.049Z,3.63
2022-08-09T08:55:52.652Z,3.63
2022-08-09T08:56:29.324Z,3.54
2022-08-09T08:57:11.514Z,3.39
2022-08-09T08:57:57.558Z,3.35
2022-08-09T08:58:33.325Z,3.05
2022-08-09T08:59:20.473Z,2.95
2022-08-09T09:00:02.325Z,3.37
2022-08-09T09:00:42.216Z,3.29
2022-08-09T09:01:25.344Z,3.17
2022-08-09T09:02:35.720Z,3.28
2022-08-09T09:03:22.668Z,3.28
2022-08-09T09:04:18.238Z,3.06
2022-08-09T09:05:11.860Z,3.20
2022-08-09T09:06:00.416Z,3.11
2022-08-09T09:06:55.250Z,3.08
2022-08-09T09:07:31.408Z,3.21
2022-08-09T09:08:30.963Z,3.10
2022-08-09T09:09:21.288Z,3.22
2022-08-09T09:10:17.117Z,3.05
2022-08-09T09:10:58.325Z,3.11
2022-08-09T09:11:42.213Z,2.99
2022-08-09T09:12:29.571Z,2.81
2022-08-09T09:13:12.230Z,2.91
2022-08-09T09:13:58.563Z,2.84
2022-08-09T09:14:39.210Z,2.83
2022-08-09T09:15:29.008Z,2.60
2022-08-09T09:16:29.875Z,2.59
2022-08-09T09:17:48.117Z,2.75
2022-08-09T09:18:45.826Z,2.71
2022-08-09T09:19:43.237Z,2.59
2022-08-09T09:20:37.236Z,2.55
2022-08-09T09:21:31.217Z,2.54
2022-08-09T09:22:37.443Z,2.41
2022-08-09T09:23:58.503Z,2.46
2022-08-09T09:26:01.786Z,2.26
2022-08-09T09:26:12.617Z,2.20
2022-08-09T09:27:05.319Z,2.34
2022-08-09T09:28:06.626Z,2.58
2022-08-09T09:29:04.464Z,2.60
2022-08-09T09:31:17.432Z,2.42
2022-08-09T09:32:35.055Z,2.38
2022-08-09T09:33:29.205Z,2.40
2022-08-09T09:34:39.242Z,2.44
2022-08-09T09:35:38.201Z,2.51
2022-08-09T09:36:27.305Z,2.59
2022-08-09T09:37:03.358Z,2.50
2022-08-09T09:37:52.200Z,2.54
2022-08-09T09:38:36.772Z,2.54
2022-08-09T09:39:42.804Z,2.51
2022-08-09T09:40:19.315Z,2.44
2022-08-09T09:41:07.209Z,2.28
2022-08-09T09:41:51.264Z,2.59
2022-08-09T09:42:46.579Z,2.60
2022-08-09T09:43:41.029Z,2.36
2022-08-09T09:44:46.216Z,2.47
2022-08-09T09:45:56.909Z,2.47
2022-08-09T09:46:54.248Z,2.41
2022-08-09T09:47:58.350Z,2.59
2022-08-09T09:48:53.175Z,2.45
2022-08-09T09:50:07.229Z,2.24
2022-08-09T09:51:05.210Z,2.51
2022-08-09T09:52:36.470Z,2.63
2022-08-09T09:53:57.425Z,2.41
2022-08-09T09:54:56.199Z,2.58
2022-08-09T09:56:30.933Z,2.58
2022-08-09T09:58:02.530Z,2.37
2022-08-09T09:59:01.197Z,2.51
2022-08-09T09:59:57.199Z,2.44
2022-08-09T10:00:59.825Z,2.40
2022-08-09T10:01:55.207Z,2.51
2022-08-09T10:02:59.278Z,2.40
2022-08-09T10:03:59.614Z,2.54
2022-08-09T10:04:56.196Z,2.63
2022-08-09T10:06:12.549Z,2.11
2022-08-09T10:07:09.990Z,2.22
2022-08-09T10:08:27.633Z,2.30
2022-08-09T10:09:24.194Z,2.41
2022-08-09T10:10:20.186Z,2.30
2022-08-09T10:12:01.445Z,2.36
2022-08-09T10:12:52.407Z,2.30
2022-08-09T10:13:48.203Z,2.25
2022-08-09T10:14:34.045Z,2.17
2022-08-09T10:15:50.736Z,2.31
2022-08-09T10:16:57.030Z,2.17
2022-08-09T10:17:55.151Z,2.13
2022-08-09T10:18:21.278Z,2.25
2022-08-09T10:19:16.197Z,1.96
2022-08-09T10:19:52.937Z,1.98
2022-08-09T10:20:44.900Z,2.04
2022-08-09T10:21:19.246Z,2.09
2022-08-09T10:22:08.183Z,2.11
2022-08-09T10:22:44.590Z,2.22
2022-08-09T10:23:32.169Z,2.40
2022-08-09T10:24:16.055Z,2.16
2022-08-09T10:25:12.563Z,2.06
2022-08-09T10:26:08.055Z,2.10
2022-08-09T10:26:55.167Z,2.00
2022-08-09T10:27:55.825Z,1.98
2022-08-09T10:28:40.328Z,1.86
2022-08-09T10:30:27.263Z,1.90
2022-08-09T10:32:40.326Z,1.70
2022-08-09T10:34:05.192Z,1.56
2022-08-09T10:34:33.544Z,1.66
2022-08-09T10:35:17.256Z,1.73
2022-08-09T10:36:02.214Z,1.63
2022-08-09T10:36:45.252Z,1.70
2022-08-09T10:37:26.189Z,1.76
2022-08-09T10:38:07.325Z,1.91
2022-08-09T10:39:15.905Z,1.81
2022-08-09T10:39:59.250Z,1.80
2022-08-09T10:40:44.818Z,1.55
2022-08-09T10:41:30.256Z,1.52
2022-08-09T10:42:05.726Z,1.60
2022-08-09T10:42:53.394Z,1.60
2022-08-09T10:43:27.281Z,1.73
2022-08-09T10:44:28.176Z,1.54
2022-08-09T10:45:16.844Z,1.59
2022-08-09T10:46:30.173Z,1.63
2022-08-09T10:48:16.651Z,1.46
2022-08-09T10:49:19.881Z,1.48
2022-08-09T10:50:03.299Z,1.66
2022-08-09T10:51:13.625Z,1.70
2022-08-09T10:52:26.506Z,1.61
2022-08-09T10:54:04.805Z,1.61
2022-08-09T10:55:00.193Z,1.50
2022-08-09T10:55:57.880Z,1.45
2022-08-09T10:56:56.186Z,1.58
2022-08-09T10:57:43.243Z,1.52
2022-08-09T10:58:40.286Z,1.52
2022-08-09T10:59:43.445Z,1.49
2022-08-09T11:01:11.408Z,1.50
2022-08-09T11:03:14.938Z,1.42
2022-08-09T11:03:16.456Z,1.54
2022-08-09T11:04:30.551Z,1.49
2022-08-09T11:05:30.996Z,1.60
2022-08-09T11:06:38.134Z,1.45
2022-08-09T11:07:57.563Z,1.49
2022-08-09T11:08:53.422Z,1.40
2022-08-09T11:09:47.705Z,1.38
2022-08-09T11:10:54.734Z,1.34
2022-08-09T11:12:05.219Z,1.35
2022-08-09T11:12:45.181Z,1.44
2022-08-09T11:13:49.875Z,1.35
2022-08-09T11:14:44.183Z,1.30
2022-08-09T11:15:33.992Z,1.46
2022-08-09T11:16:43.397Z,1.53
2022-08-09T11:17:31.306Z,1.40
2022-08-09T11:18:12.159Z,1.38
2022-08-09T11:18:57.283Z,1.40
2022-08-09T11:20:27.205Z,1.34
2022-08-09T11:21:07.258Z,1.38
2022-08-09T11:22:10.530Z,1.36
2022-08-09T11:23:07.034Z,1.36
2022-08-09T11:24:06.149Z,1.45
2022-08-09T11:25:26.136Z,1.46
2022-08-09T11:26:47.391Z,1.46
2022-08-09T11:28:05.487Z,1.45
2022-08-09T11:28:56.208Z,1.39
2022-08-09T11:30:04.640Z,1.48
2022-08-09T11:30:51.146Z,1.63
2022-08-09T11:32:04.423Z,1.48
2022-08-09T11:33:30.142Z,1.65
2022-08-09T11:34:36.184Z,1.58
2022-08-09T11:35:49.559Z,1.29